Time;durP1;ratioP1;P1;durP2;ratioP2;P2;SDS_P1;SDS_P2;PMS_P1;PMS_P2;Temp;Humidity;BMP_temperature;BMP_pressure;BME280_temperature;BME280_humidity;BME280_pressure;Samples;Min_cycle;Max_cycle;Signal;HPM_P1;HPM_P2
2023/03/13 00:02:07;;;;;;;21.87;6.23;;;;;;;9.08;100.00;100116.63;4980955;28;20042;-90
2023/03/13 00:04:32;;;;;;;22.60;5.63;;;;;;;9.11;100.00;100134.25;4968921;28;20049;-90
2023/03/13 00:06:58;;;;;;;22.47;5.63;;;;;;;9.13;100.00;100126.78;4995358;28;20050;-92
2023/03/13 00:09:23;;;;;;;22.57;6.40;;;;;;;9.11;100.00;100107.22;4958630;28;20038;-90
2023/03/13 00:11:48;;;;;;;19.67;6.03;;;;;;;9.09;100.00;100104.75;4979153;28;20042;-90
2023/03/13 00:14:14;;;;;;;24.93;5.90;;;;;;;9.05;100.00;100103.53;4982348;28;20068;-90
2023/03/13 00:16:39;;;;;;;24.17;6.07;;;;;;;8.91;100.00;100089.31;4968333;28;20125;-82
2023/03/13 00:19:06;;;;;;;21.53;5.50;;;;;;;8.90;100.00;100090.34;4978801;28;20034;-90
2023/03/13 00:21:32;;;;;;;20.17;5.17;;;;;;;8.89;100.00;100079.78;4975250;28;20042;-90
2023/03/13 00:23:59;;;;;;;22.33;5.57;;;;;;;8.87;100.00;100079.19;4962244;28;21003;-90
2023/03/13 00:26:26;;;;;;;23.43;5.90;;;;;;;8.68;100.00;100078.28;4982603;28;20065;-91
2023/03/13 00:28:52;;;;;;;27.33;6.50;;;;;;;8.64;100.00;100060.84;4977938;28;20043;-83
2023/03/13 00:31:20;;;;;;;25.83;5.60;;;;;;;8.63;100.00;100056.50;4977893;28;20048;-83
2023/03/13 00:33:48;;;;;;;25.30;6.13;;;;;;;8.55;100.00;100044.88;4973259;28;20129;-83
2023/03/13 00:36:16;;;;;;;26.20;6.07;;;;;;;8.52;100.00;100042.63;4976536;28;20034;-83
2023/03/13 00:38:41;;;;;;;27.33;6.40;;;;;;;8.44;100.00;100053.66;4992480;28;20037;-83
2023/03/13 00:41:10;;;;;;;28.37;6.07;;;;;;;8.43;100.00;100047.44;4984264;28;20030;-83
2023/03/13 00:43:36;;;;;;;28.03;7.20;;;;;;;8.39;100.00;100046.22;4977004;28;20046;-83
2023/03/13 00:46:01;;;;;;;24.47;6.40;;;;;;;8.35;100.00;100030.66;4963746;28;20046;-83
2023/03/13 00:48:27;;;;;;;26.83;6.93;;;;;;;8.35;100.00;100030.66;4994646;28;20042;-84
2023/03/13 00:50:53;;;;;;;31.20;6.20;;;;;;;8.36;100.00;100025.03;4984277;28;20050;-84
2023/03/13 00:53:18;;;;;;;29.37;6.90;;;;;;;8.36;100.00;100005.34;4982877;28;20085;-90
2023/03/13 00:55:54;;;;;;;28.03;6.60;;;;;;;8.35;100.00;100007.22;4976536;28;20046;-89
2023/03/13 00:58:20;;;;;;;26.20;6.60;;;;;;;8.42;100.00;99997.19;4980013;28;20445;-91
2023/03/13 01:00:46;;;;;;;27.60;6.90;;;;;;;8.44;100.00;99994.28;4963164;28;20042;-90
2023/03/13 01:03:11;;;;;;;28.27;6.63;;;;;;;8.41;100.00;99997.41;4982243;28;20030;-91
2023/03/13 01:05:36;;;;;;;27.27;6.77;;;;;;;8.41;100.00;99963.13;4933667;28;20034;-84
2023/03/13 01:08:02;;;;;;;24.13;6.60;;;;;;;8.46;100.00;99970.63;4929929;28;20395;-84
2023/03/13 01:10:27;;;;;;;29.77;7.90;;;;;;;8.45;100.00;99967.09;4977761;28;20030;-84
2023/03/13 01:12:52;;;;;;;25.00;7.03;;;;;;;8.44;100.00;99961.88;4959699;28;20046;-84
2023/03/13 01:15:18;;;;;;;25.87;7.17;;;;;;;8.45;100.00;99958.16;4948260;28;20049;-85
2023/03/13 01:17:44;;;;;;;24.40;8.17;;;;;;;8.49;100.00;99948.59;4996169;28;20513;-84
2023/03/13 01:20:10;;;;;;;22.60;7.47;;;;;;;8.53;100.00;99957.09;4957680;28;20038;-89
2023/03/13 01:22:36;;;;;;;26.97;8.30;;;;;;;8.49;100.00;99935.09;4989371;28;20111;-91
2023/03/13 01:25:01;;;;;;;22.27;7.77;;;;;;;8.50;100.00;99923.25;4977666;28;20453;-91
2023/03/13 01:27:28;;;;;;;26.93;8.77;;;;;;;8.50;100.00;99939.44;4971189;28;20046;-92
2023/03/13 01:29:53;;;;;;;26.90;9.20;;;;;;;8.53;100.00;99921.97;4978841;28;20045;-90
2023/03/13 01:32:19;;;;;;;27.00;10.27;;;;;;;8.52;100.00;99915.75;4983680;28;20870;-90
2023/03/13 01:34:44;;;;;;;25.67;9.00;;;;;;;8.62;100.00;99920.63;4980518;28;20047;-91
2023/03/13 01:37:10;;;;;;;22.70;8.90;;;;;;;8.69;100.00;99907.06;4976008;28;20564;-90
2023/03/13 01:39:35;;;;;;;24.70;9.90;;;;;;;8.74;100.00;99915.34;4971633;28;20049;-90
2023/03/13 01:42:03;;;;;;;26.10;10.00;;;;;;;8.74;100.00;99910.78;4982638;28;20426;-85
2023/03/13 01:44:28;;;;;;;26.13;10.40;;;;;;;8.80;100.00;99900.97;4998662;28;20035;-85
2023/03/13 01:46:53;;;;;;;25.30;10.73;;;;;;;8.82;100.00;99893.44;4972170;28;20049;-85
2023/03/13 01:49:26;;;;;;;23.60;10.60;;;;;;;8.88;100.00;99889.84;4987414;28;20129;-85
2023/03/13 01:51:57;;;;;;;22.00;10.40;;;;;;;8.94;100.00;99871.91;4980286;28;20043;-85
2023/03/13 01:54:39;;;;;;;20.57;9.30;;;;;;;8.98;100.00;99862.31;4970014;28;20036;-85
2023/03/13 01:57:15;;;;;;;21.17;9.20;;;;;;;9.11;100.00;99864.03;4992884;28;20037;-85
2023/03/13 01:59:45;;;;;;;24.63;10.27;;;;;;;9.13;100.00;99853.81;4977187;28;20490;-85
2023/03/13 02:02:12;;;;;;;19.90;10.70;;;;;;;9.10;100.00;99860.50;5002313;28;20030;-92
2023/03/13 02:04:44;;;;;;;19.50;8.67;;;;;;;9.21;100.00;99856.22;4986098;28;20038;-92
2023/03/13 02:07:26;;;;;;;21.90;9.57;;;;;;;9.19;100.00;99849.38;4983684;28;20040;-90
2023/03/13 02:09:55;;;;;;;20.33;9.43;;;;;;;9.31;100.00;99842.16;4997015;28;20116;-93
2023/03/13 02:12:30;;;;;;;20.63;8.50;;;;;;;9.35;100.00;99820.91;4969467;28;20071;-85
2023/03/13 02:14:59;;;;;;;17.83;8.67;;;;;;;9.35;100.00;99821.72;4994741;28;20129;-85
2023/03/13 02:17:26;;;;;;;18.33;8.07;;;;;;;9.45;100.00;99810.34;4965783;28;20065;-85
2023/03/13 02:19:51;;;;;;;19.67;8.80;;;;;;;9.49;100.00;99799.91;4974066;28;20050;-85
2023/03/13 02:22:43;;;;;;;20.67;7.97;;;;;;;9.60;100.00;99802.66;4987433;28;20038;-84
2023/03/13 02:25:09;;;;;;;17.07;6.30;;;;;;;9.67;100.00;99802.56;4991707;28;20049;-93
2023/03/13 02:27:35;;;;;;;15.43;5.80;;;;;;;9.71;100.00;99779.41;5001714;28;20030;-92
2023/03/13 02:30:01;;;;;;;15.83;6.20;;;;;;;9.72;100.00;99762.09;4980476;28;20030;-91
2023/03/13 02:32:29;;;;;;;15.97;6.83;;;;;;;9.71;100.00;99770.44;4979425;28;20066;-93
2023/03/13 02:34:57;;;;;;;17.80;6.70;;;;;;;9.79;100.00;99768.25;4981842;28;20524;-85
2023/03/13 02:37:25;;;;;;;14.87;5.60;;;;;;;9.75;100.00;99767.06;4982978;28;20041;-85
2023/03/13 02:39:52;;;;;;;12.80;6.73;;;;;;;9.79;100.00;99770.94;4996551;28;21992;-85
2023/03/13 02:42:20;;;;;;;14.43;6.53;;;;;;;9.90;100.00;99752.22;4998507;28;20030;-85
2023/03/13 02:44:46;;;;;;;12.30;5.93;;;;;;;9.92;100.00;99759.06;4976744;28;20482;-85
2023/03/13 02:47:20;;;;;;;15.60;6.80;;;;;;;9.87;100.00;99764.34;4994330;28;20038;-85
2023/03/13 02:49:45;;;;;;;13.63;5.80;;;;;;;9.91;100.00;99765.56;4999867;28;21693;-85
2023/03/13 02:52:16;;;;;;;14.50;6.90;;;;;;;9.93;100.00;99754.50;4979950;28;20285;-85
2023/03/13 02:54:44;;;;;;;14.60;6.90;;;;;;;10.02;100.00;99763.06;4979010;28;20046;-84
2023/03/13 02:57:10;;;;;;;15.30;7.30;;;;;;;10.03;100.00;99762.84;4995856;28;20038;-85
2023/03/13 02:59:35;;;;;;;14.77;6.37;;;;;;;10.11;100.00;99758.97;5000560;28;20048;-84
2023/03/13 03:02:02;;;;;;;13.27;7.50;;;;;;;10.13;100.00;99746.00;4982443;28;20042;-91
2023/03/13 03:04:27;;;;;;;11.67;6.27;;;;;;;10.21;100.00;99759.19;4976566;28;20456;-90
2023/03/13 03:06:53;;;;;;;11.73;6.57;;;;;;;10.22;100.00;99760.84;4954955;28;20034;-92
2023/03/13 03:09:19;;;;;;;12.53;6.60;;;;;;;10.24;100.00;99750.59;4958382;28;20069;-89
2023/03/13 03:11:45;;;;;;;13.63;6.60;;;;;;;10.26;100.00;99769.31;4989788;28;20042;-92
2023/03/13 03:14:11;;;;;;;14.73;6.77;;;;;;;10.31;100.00;99767.53;4958662;28;20034;-92
2023/03/13 03:16:37;;;;;;;14.73;7.07;;;;;;;10.38;100.00;99756.63;4975351;28;20038;-93
2023/03/13 03:19:03;;;;;;;13.10;7.20;;;;;;;10.36;100.00;99760.63;4989783;28;20030;-85
2023/03/13 03:21:28;;;;;;;12.93;7.33;;;;;;;10.33;100.00;99744.84;4997026;28;20035;-85
2023/03/13 03:23:54;;;;;;;12.13;6.83;;;;;;;10.38;100.00;99748.50;4993947;28;20049;-86
2023/03/13 03:26:19;;;;;;;11.83;7.10;;;;;;;10.40;100.00;99746.38;4985083;28;20117;-85
2023/03/13 03:28:45;;;;;;;15.60;7.97;;;;;;;10.45;100.00;99753.78;4978047;28;20451;-85
2023/03/13 03:31:12;;;;;;;9.60;6.30;;;;;;;10.52;100.00;99756.38;4993240;28;20031;-86
2023/03/13 03:33:38;;;;;;;8.10;6.20;;;;;;;10.52;100.00;99743.63;5002164;28;20433;-86
2023/03/13 03:36:07;;;;;;;10.17;6.63;;;;;;;10.53;100.00;99748.00;4978763;28;20038;-92
2023/03/13 03:38:33;;;;;;;9.47;6.57;;;;;;;10.61;100.00;99736.81;4982883;28;20038;-92
2023/03/13 03:40:58;;;;;;;7.77;6.20;;;;;;;10.61;100.00;99744.91;4985448;28;20030;-91
2023/03/13 03:43:24;;;;;;;9.03;6.37;;;;;;;10.64;100.00;99735.50;4981353;28;20034;-90
2023/03/13 03:45:49;;;;;;;8.33;6.40;;;;;;;10.68;100.00;99758.34;4967847;28;20038;-91
2023/03/13 03:48:15;;;;;;;10.90;6.70;;;;;;;10.67;100.00;99731.50;4985311;28;20429;-85
2023/03/13 03:50:40;;;;;;;9.30;6.80;;;;;;;10.67;100.00;99743.13;4976224;28;20038;-85
2023/03/13 03:53:06;;;;;;;8.13;6.30;;;;;;;10.67;100.00;99734.19;4996970;28;20049;-85
2023/03/13 03:55:32;;;;;;;10.07;6.67;;;;;;;10.73;100.00;99750.31;4979918;28;20390;-86
2023/03/13 03:57:58;;;;;;;9.70;6.70;;;;;;;10.74;100.00;99740.28;4977580;28;20034;-85
2023/03/13 04:00:23;;;;;;;7.60;6.50;;;;;;;10.74;100.00;99751.13;4979867;28;20030;-85
2023/03/13 04:02:49;;;;;;;9.63;6.77;;;;;;;10.76;100.00;99743.59;4998153;28;20034;-85
2023/03/13 04:05:14;;;;;;;10.93;7.10;;;;;;;10.72;100.00;99737.03;4967228;28;20034;-85
2023/03/13 04:07:39;;;;;;;9.37;6.97;;;;;;;10.70;100.00;99728.28;4970604;28;20037;-85
2023/03/13 04:10:06;;;;;;;10.77;7.40;;;;;;;10.81;100.00;99724.72;4968696;28;20266;-86
2023/03/13 04:12:31;;;;;;;14.00;7.30;;;;;;;10.80;100.00;99726.63;4980604;28;20070;-86
2023/03/13 04:14:56;;;;;;;10.47;7.60;;;;;;;10.84;100.00;99728.84;4979285;28;20125;-85
2023/03/13 04:17:22;;;;;;;8.87;7.30;;;;;;;10.86;100.00;99727.53;4977032;28;20061;-86
2023/03/13 04:19:47;;;;;;;10.93;7.53;;;;;;;10.88;100.00;99714.56;4979093;28;20066;-85
2023/03/13 04:22:13;;;;;;;12.67;7.73;;;;;;;10.91;100.00;99724.94;4959927;28;21988;-86
2023/03/13 04:24:38;;;;;;;11.57;7.80;;;;;;;10.95;100.00;99707.13;4998538;28;20035;-85
2023/03/13 04:27:05;;;;;;;9.03;7.77;;;;;;;10.97;100.00;99686.03;4979444;28;20109;-85
2023/03/13 04:29:33;;;;;;;9.33;7.20;;;;;;;11.05;100.00;99697.53;4997984;28;20408;-86
2023/03/13 04:31:59;;;;;;;9.30;6.63;;;;;;;11.11;100.00;99688.41;4981478;28;20131;-86
2023/03/13 04:34:25;;;;;;;11.00;7.07;;;;;;;11.14;100.00;99683.34;4961576;28;20129;-92
2023/03/13 04:36:50;;;;;;;9.97;6.20;;;;;;;11.13;100.00;99683.59;4999386;28;20092;-94
2023/03/13 04:39:15;;;;;;;9.53;6.47;;;;;;;11.24;100.00;99679.16;4982459;28;20038;-91
2023/03/13 04:41:41;;;;;;;8.53;6.30;;;;;;;11.23;100.00;99675.66;4977037;28;20074;-93
2023/03/13 04:44:06;;;;;;;9.47;5.80;;;;;;;11.35;100.00;99664.69;4993208;28;20037;-93
2023/03/13 04:46:32;;;;;;;11.10;5.67;;;;;;;11.36;100.00;99676.38;4989974;28;20524;-94
2023/03/13 04:48:57;;;;;;;10.17;5.80;;;;;;;11.35;100.00;99658.47;4984235;28;20060;-92
2023/03/13 04:51:23;;;;;;;9.47;5.50;;;;;;;11.38;100.00;99657.97;4978182;28;20023;-93
2023/03/13 04:53:48;;;;;;;9.37;5.33;;;;;;;11.40;100.00;99645.81;4977764;28;20474;-92
2023/03/13 04:56:22;;;;;;;10.23;5.30;;;;;;;11.45;100.00;99655.91;4959852;28;20045;-94
2023/03/13 04:58:48;;;;;;;6.40;5.18;;;;;;;11.52;100.00;99643.00;4976197;28;20457;-92
2023/03/13 05:01:13;;;;;;;8.33;4.90;;;;;;;11.60;100.00;99633.63;4966295;28;20110;-94
2023/03/13 05:03:38;;;;;;;8.13;5.10;;;;;;;11.70;100.00;99655.50;4990787;28;20511;-95
2023/03/13 05:06:04;;;;;;;7.73;4.80;;;;;;;11.73;100.00;99629.75;4959074;28;20045;-92
2023/03/13 05:08:30;;;;;;;8.30;5.00;;;;;;;11.73;100.00;99648.75;4955983;28;20103;-92
2023/03/13 05:10:55;;;;;;;8.50;4.40;;;;;;;11.79;100.00;99645.03;4965557;28;20039;-93
2023/03/13 05:13:21;;;;;;;6.83;4.30;;;;;;;11.82;100.00;99633.69;4961365;28;20039;-93
2023/03/13 05:15:46;;;;;;;4.37;3.93;;;;;;;11.93;100.00;99646.31;4982250;28;20065;-93
2023/03/13 05:18:12;;;;;;;6.70;4.10;;;;;;;11.93;100.00;99642.81;4956143;28;20057;-86
2023/03/13 05:20:37;;;;;;;6.47;4.00;;;;;;;12.00;100.00;99629.88;4965292;28;20501;-86
2023/03/13 05:23:03;;;;;;;6.30;3.77;;;;;;;12.02;100.00;99635.88;4971130;28;20074;-94
2023/03/13 05:25:28;;;;;;;9.20;3.80;;;;;;;12.05;100.00;99637.25;4959574;28;20045;-85
2023/03/13 05:27:53;;;;;;;5.97;3.87;;;;;;;12.03;100.00;99625.84;4957062;28;20043;-93
2023/03/13 05:30:19;;;;;;;7.50;4.10;;;;;;;12.07;100.00;99633.22;4948175;28;20031;-94
2023/03/13 05:32:44;;;;;;;15.93;4.17;;;;;;;12.12;100.00;99632.50;4963429;28;20388;-96
2023/03/13 05:35:10;;;;;;;7.20;3.77;;;;;;;12.15;100.00;99632.78;4957611;28;20131;-94
2023/03/13 05:37:35;;;;;;;7.47;3.70;;;;;;;12.15;100.00;99624.66;4959166;28;20034;-93
2023/03/13 05:40:01;;;;;;;7.63;3.87;;;;;;;12.21;100.00;99630.16;4932275;28;20046;-85
2023/03/13 05:42:26;;;;;;;9.00;3.83;;;;;;;12.24;100.00;99616.06;4955212;28;20034;-85
2023/03/13 05:44:52;;;;;;;7.57;3.37;;;;;;;12.25;100.00;99637.56;4949037;28;21120;-94
2023/03/13 05:47:17;;;;;;;7.20;3.60;;;;;;;12.23;100.00;99647.84;4951449;29;20035;-93
2023/03/13 05:49:43;;;;;;;8.10;3.90;;;;;;;12.25;100.00;99628.56;4953699;28;20176;-93
2023/03/13 05:52:08;;;;;;;7.87;3.77;;;;;;;12.27;100.00;99612.84;4969268;28;20034;-91
2023/03/13 05:54:34;;;;;;;6.13;3.47;;;;;;;12.33;100.00;99658.84;4935481;28;20542;-92
2023/03/13 05:56:59;;;;;;;7.20;3.50;;;;;;;12.35;100.00;99630.56;4953078;28;20035;-92
2023/03/13 05:59:25;;;;;;;9.13;3.70;;;;;;;12.40;100.00;99636.06;4954602;28;20101;-92
2023/03/13 06:01:50;;;;;;;8.93;3.60;;;;;;;12.31;100.00;99622.13;4936448;29;20027;-93
2023/03/13 06:04:15;;;;;;;7.33;3.10;;;;;;;12.39;100.00;99639.88;4949733;28;20030;-94
2023/03/13 06:06:41;;;;;;;8.20;3.20;;;;;;;12.37;100.00;99637.41;4925279;29;20035;-93
2023/03/13 06:09:06;;;;;;;7.07;3.07;;;;;;;12.36;100.00;99632.22;4937103;29;20063;-94
2023/03/13 06:11:32;;;;;;;10.23;3.63;;;;;;;12.28;100.00;99634.31;4954763;28;20031;-92
2023/03/13 06:13:57;;;;;;;7.07;3.60;;;;;;;12.35;100.00;99630.56;4940273;29;20043;-93
2023/03/13 06:16:23;;;;;;;7.73;3.27;;;;;;;12.36;100.00;99624.09;4926857;28;20074;-95
2023/03/13 06:18:50;;;;;;;7.73;3.07;;;;;;;12.39;100.00;99624.41;4927564;28;20059;-85
2023/03/13 06:21:15;;;;;;;8.13;3.50;;;;;;;12.42;100.00;99617.66;4955322;28;20101;-85
2023/03/13 06:23:41;;;;;;;7.70;3.43;;;;;;;12.42;100.00;99614.94;4957552;28;20435;-85
2023/03/13 06:26:06;;;;;;;8.70;3.47;;;;;;;12.47;100.00;99625.84;4962130;28;20129;-85
2023/03/13 06:28:32;;;;;;;7.23;3.20;;;;;;;12.51;100.00;99594.34;4956340;28;20069;-84
2023/03/13 06:31:05;;;;;;;11.57;3.47;;;;;;;12.49;100.00;99610.13;4959778;28;20043;-85
2023/03/13 06:33:31;;;;;;;7.97;3.30;;;;;;;12.50;100.00;99622.63;4959041;28;20402;-85
2023/03/13 06:35:56;;;;;;;7.57;3.57;;;;;;;12.49;100.00;99623.69;4956542;28;20302;-85
2023/03/13 06:38:23;;;;;;;8.30;3.30;;;;;;;12.55;100.00;99622.69;4963640;28;20057;-85
2023/03/13 06:40:48;;;;;;;9.40;3.23;;;;;;;12.61;100.00;99610.78;4959358;28;21778;-85
2023/03/13 06:43:14;;;;;;;8.53;3.50;;;;;;;12.57;100.00;99619.72;4957342;28;20039;-94
2023/03/13 06:45:39;;;;;;;9.87;3.20;;;;;;;12.63;100.00;99624.13;4937606;29;20411;-94
2023/03/13 06:48:04;;;;;;;7.70;3.13;;;;;;;12.56;100.00;99609.91;4950591;28;20126;-93
2023/03/13 06:50:30;;;;;;;8.30;3.30;;;;;;;12.60;100.00;99630.88;4970462;28;20035;-93
2023/03/13 06:52:56;;;;;;;9.67;3.50;;;;;;;12.55;100.00;99625.41;4958932;28;20475;-93
2023/03/13 06:55:22;;;;;;;8.07;3.70;;;;;;;12.65;100.00;99625.50;4965167;28;20493;-93
2023/03/13 06:57:51;;;;;;;7.83;3.50;;;;;;;12.65;100.00;99621.97;4943624;28;20042;-92
2023/03/13 07:00:18;;;;;;;11.83;3.37;;;;;;;12.65;100.00;99605.66;4968741;28;20522;-92
2023/03/13 07:02:44;;;;;;;8.80;3.43;;;;;;;12.69;100.00;99616.81;4967175;28;20027;-94
2023/03/13 07:05:09;;;;;;;7.97;3.00;;;;;;;12.71;100.00;99614.69;4944892;28;20098;-91
2023/03/13 07:07:34;;;;;;;7.67;3.30;;;;;;;12.74;100.00;99612.28;4977364;28;20432;-93
2023/03/13 07:10:00;;;;;;;8.53;3.47;;;;;;;12.69;100.00;99622.25;4956141;28;20035;-93
2023/03/13 07:12:26;;;;;;;9.33;3.20;;;;;;;12.68;100.00;99623.38;4951289;28;20035;-85
2023/03/13 07:14:51;;;;;;;11.67;3.43;;;;;;;12.68;100.00;99616.03;4959949;28;20114;-90
2023/03/13 07:17:16;;;;;;;11.73;3.40;;;;;;;12.71;100.00;99590.22;4960778;28;20035;-85
2023/03/13 07:19:42;;;;;;;7.03;3.40;;;;;;;12.72;100.00;99600.03;4958120;28;20065;-85
2023/03/13 07:22:07;;;;;;;10.80;3.60;;;;;;;12.82;100.00;99622.69;4954978;28;20039;-85
2023/03/13 07:24:33;;;;;;;9.33;3.30;;;;;;;12.80;100.00;99621.31;4997117;28;20402;-93
2023/03/13 07:26:58;;;;;;;10.23;3.40;;;;;;;12.86;100.00;99611.31;4990081;28;20457;-95
2023/03/13 07:29:24;;;;;;;8.93;3.67;;;;;;;12.83;100.00;99604.47;4981448;28;20030;-94
2023/03/13 07:31:49;;;;;;;9.23;3.40;;;;;;;12.84;100.00;99619.72;4978498;28;20043;-94
2023/03/13 07:34:15;;;;;;;11.57;3.30;;;;;;;12.87;100.00;99611.03;4966036;28;20112;-94
2023/03/13 07:36:40;;;;;;;10.83;3.17;;;;;;;12.79;100.00;99601.44;4962081;28;20058;-92
2023/03/13 07:39:06;;;;;;;8.30;3.23;;;;;;;12.84;100.00;99619.72;4977532;28;20050;-95
2023/03/13 07:41:32;;;;;;;9.73;3.27;;;;;;;12.91;100.00;99619.50;4980703;28;20027;-93
2023/03/13 07:43:58;;;;;;;7.03;2.93;;;;;;;12.98;100.00;99607.31;4985420;28;20077;-93
2023/03/13 07:46:24;;;;;;;8.97;3.07;;;;;;;13.02;100.00;99610.38;4969570;28;20038;-94
2023/03/13 07:48:50;;;;;;;8.27;3.00;;;;;;;12.98;100.00;99620.13;4984452;28;20026;-93
2023/03/13 07:51:21;;;;;;;8.53;3.13;;;;;;;12.92;100.00;99610.25;4974593;28;20090;-93
2023/03/13 07:53:47;;;;;;;7.27;2.90;;;;;;;12.94;100.00;99616.28;4991096;28;20041;-92
2023/03/13 07:56:17;;;;;;;7.17;2.83;;;;;;;12.97;100.00;99622.03;4977438;28;20031;-92
2023/03/13 07:58:43;;;;;;;8.90;2.97;;;;;;;12.91;100.00;99614.88;4983155;28;20026;-93
2023/03/13 08:01:11;;;;;;;6.93;2.90;;;;;;;12.95;100.00;99629.59;5007893;28;20053;-93
2023/03/13 08:03:37;;;;;;;10.33;3.30;;;;;;;12.91;100.00;99624.94;4977694;28;20041;-94
2023/03/13 08:06:04;;;;;;;8.57;3.30;;;;;;;12.95;100.00;99617.91;4966202;28;20030;-93
2023/03/13 08:08:30;;;;;;;9.00;3.30;;;;;;;12.90;100.00;99601.56;4977532;28;20034;-95
2023/03/13 08:11:01;;;;;;;9.90;3.17;;;;;;;12.99;100.00;99603.53;4968084;28;20479;-94
2023/03/13 08:13:26;;;;;;;7.47;2.90;;;;;;;13.05;100.00;99598.16;4990023;28;20030;-92
2023/03/13 08:15:52;;;;;;;8.17;3.20;;;;;;;13.06;100.00;99588.94;4941934;28;20041;-93
2023/03/13 08:18:17;;;;;;;7.10;3.17;;;;;;;13.16;100.00;99591.72;4965365;28;20530;-95
2023/03/13 08:20:42;;;;;;;9.03;3.23;;;;;;;13.24;100.00;99598.59;4961463;28;20034;-93
2023/03/13 08:23:08;;;;;;;10.90;3.20;;;;;;;13.24;100.00;99590.41;4990273;28;20054;-94
2023/03/13 08:25:33;;;;;;;7.40;3.57;;;;;;;13.25;100.00;99576.56;4977301;28;20045;-92
2023/03/13 08:27:58;;;;;;;8.67;3.07;;;;;;;13.23;100.00;99573.28;4993791;28;20061;-93
2023/03/13 08:30:24;;;;;;;12.10;3.33;;;;;;;13.29;100.00;99583.13;4993672;28;20052;-93
2023/03/13 08:32:49;;;;;;;7.23;2.73;;;;;;;13.36;100.00;99601.16;4984053;28;20543;-94
2023/03/13 08:35:15;;;;;;;7.40;3.10;;;;;;;13.38;100.00;99596.25;4961462;28;20034;-93
2023/03/13 08:37:40;;;;;;;7.73;3.23;;;;;;;13.33;100.00;99595.13;4976799;28;20073;-94
2023/03/13 08:40:10;;;;;;;10.10;3.97;;;;;;;13.16;100.00;99599.88;4991609;28;20096;-86
2023/03/13 08:42:36;;;;;;;9.60;3.33;;;;;;;13.02;100.00;99587.81;4980809;28;20034;-85
2023/03/13 08:45:01;;;;;;;8.10;3.27;;;;;;;12.87;100.00;99586.56;4997620;28;20038;-86
2023/03/13 08:47:27;;;;;;;10.33;3.50;;;;;;;12.72;100.00;99583.72;4995413;28;20100;-85
2023/03/13 08:49:53;;;;;;;9.17;3.20;;;;;;;12.66;100.00;99601.84;4978768;28;20095;-86
2023/03/13 08:52:19;;;;;;;10.37;3.60;;;;;;;12.42;100.00;99595.91;4981542;28;20042;-85
2023/03/13 08:54:46;;;;;;;8.03;3.70;;;;;;;12.37;100.00;99591.22;4992053;28;20042;-86
2023/03/13 08:57:12;;;;;;;9.77;3.43;;;;;;;12.32;100.00;99594.72;4989893;28;20147;-85
2023/03/13 08:59:37;;;;;;;9.60;3.30;;;;;;;12.25;100.00;99602.25;4993488;28;20518;-86
2023/03/13 09:02:03;;;;;;;9.27;3.63;;;;;;;12.25;100.00;99599.53;4962925;28;20126;-86
2023/03/13 09:04:28;;;;;;;9.53;3.50;;;;;;;12.30;100.00;99574.31;4974212;28;20058;-86
2023/03/13 09:06:54;;;;;;;9.53;3.57;;;;;;;12.39;100.00;99564.66;4975532;28;21649;-85
2023/03/13 09:09:19;;;;;;;7.57;3.53;;;;;;;12.56;100.00;99553.66;4990321;28;20040;-85
2023/03/13 09:11:44;;;;;;;5.40;2.90;;;;;;;12.76;100.00;99557.66;5002480;28;20038;-86
2023/03/13 09:14:10;;;;;;;7.40;3.07;;;;;;;13.02;100.00;99553.25;4948488;28;20556;-86
2023/03/13 09:16:35;;;;;;;6.20;2.90;;;;;;;13.28;100.00;99550.75;4996019;28;20117;-85
2023/03/13 09:19:01;;;;;;;7.07;2.83;;;;;;;13.46;100.00;99554.97;4999157;28;20114;-85
2023/03/13 09:21:30;;;;;;;5.60;2.50;;;;;;;13.66;100.00;99536.03;4987468;28;20061;-85
2023/03/13 09:23:56;;;;;;;6.70;2.60;;;;;;;13.92;100.00;99555.19;4993597;28;20081;-86
2023/03/13 09:26:23;;;;;;;4.23;2.20;;;;;;;14.10;100.00;99569.44;4990608;28;20034;-86
2023/03/13 09:28:49;;;;;;;6.30;2.60;;;;;;;14.16;100.00;99539.22;4996550;28;20034;-86
2023/03/13 09:31:18;;;;;;;6.43;2.30;;;;;;;14.34;100.00;99546.09;4980478;28;20030;-86
2023/03/13 09:33:45;;;;;;;9.23;2.90;;;;;;;14.40;100.00;99518.84;4965423;28;20422;-86
2023/03/13 09:36:11;;;;;;;6.80;2.60;;;;;;;14.47;100.00;99533.03;4970952;28;20070;-85
2023/03/13 09:38:37;;;;;;;5.83;2.43;;;;;;;14.68;100.00;99542.91;4971012;28;20052;-86
2023/03/13 09:41:21;;;;;;;5.30;2.60;;;;;;;14.93;100.00;99519.47;4996527;28;20089;-93
2023/03/13 09:44:11;;;;;;;8.20;2.70;;;;;;;15.13;100.00;99515.91;4993204;28;20034;-95
2023/03/13 09:46:40;;;;;;;6.93;2.77;;;;;;;15.24;97.98;99508.53;4993676;28;20027;-93
2023/03/13 09:49:30;;;;;;;6.07;2.63;;;;;;;15.46;97.58;99510.13;4983219;28;20034;-96
2023/03/13 09:52:21;;;;;;;6.67;2.50;;;;;;;15.42;96.59;99496.22;4980188;28;20042;-96
2023/03/13 09:54:49;;;;;;;6.30;2.60;;;;;;;15.26;94.31;99502.78;4979092;28;20042;-94
2023/03/13 09:57:23;;;;;;;6.83;2.57;;;;;;;15.31;95.37;99505.50;4996817;28;20066;-93
2023/03/13 09:59:56;;;;;;;6.93;2.27;;;;;;;15.15;95.34;99491.91;5004060;28;20113;-94
2023/03/13 10:02:34;;;;;;;6.40;2.70;;;;;;;15.07;96.42;99505.25;4985316;28;20077;-86
2023/03/13 10:05:17;;;;;;;5.60;2.73;;;;;;;14.93;96.34;99473.13;5001735;28;20051;-85
2023/03/13 10:07:43;;;;;;;5.67;2.50;;;;;;;14.82;95.17;99482.38;4997776;28;20521;-85
2023/03/13 10:10:18;;;;;;;4.97;2.20;;;;;;;14.79;96.42;99472.03;4995000;28;20080;-85
2023/03/13 10:12:46;;;;;;;4.67;2.10;;;;;;;14.81;94.57;99488.91;5001538;28;20042;-85
2023/03/13 10:15:32;;;;;;;4.60;2.10;;;;;;;14.88;95.25;99486.75;4982788;28;20045;-85
2023/03/13 10:18:05;;;;;;;4.53;2.30;;;;;;;15.06;94.28;99482.63;5004435;28;20041;-85
2023/03/13 10:20:35;;;;;;;5.50;2.37;;;;;;;15.02;95.25;99482.34;5000150;28;20054;-86
2023/03/13 10:23:16;;;;;;;4.53;2.30;;;;;;;15.12;95.39;99476.09;4997504;28;20049;-85
2023/03/13 10:25:42;;;;;;;5.43;2.10;;;;;;;15.36;93.05;99486.41;4985673;28;20132;-85
2023/03/13 10:28:18;;;;;;;3.60;1.90;;;;;;;15.44;92.00;99482.28;5000120;28;20109;-93
2023/03/13 10:30:51;;;;;;;4.13;1.80;;;;;;;15.35;91.78;99484.75;4978922;28;20038;-94
2023/03/13 10:33:27;;;;;;;4.23;2.20;;;;;;;15.45;90.68;99478.44;4993215;28;20042;-92
2023/03/13 10:36:09;;;;;;;5.00;2.10;;;;;;;15.63;91.37;99461.47;4979333;28;20026;-86
2023/03/13 10:38:52;;;;;;;2.73;1.90;;;;;;;15.72;89.82;99471.81;4970329;28;20117;-82
2023/03/13 10:41:29;;;;;;;4.13;2.07;;;;;;;15.64;90.54;99457.66;4985371;28;20034;-82
2023/03/13 10:44:02;;;;;;;2.67;2.10;;;;;;;15.67;88.65;99459.00;4984062;28;20038;-81
2023/03/13 10:46:30;;;;;;;5.67;2.20;;;;;;;15.74;88.04;99458.72;4983437;28;20038;-85
2023/03/13 10:49:00;;;;;;;4.27;1.80;;;;;;;15.79;86.34;99442.28;4990897;28;20104;-91
2023/03/13 10:51:36;;;;;;;4.53;1.70;;;;;;;15.85;85.92;99452.13;4977847;28;20529;-90
2023/03/13 10:54:14;;;;;;;4.93;2.00;;;;;;;15.81;88.03;99453.78;4979022;28;20433;-93
2023/03/13 10:56:40;;;;;;;3.87;1.93;;;;;;;15.92;89.18;99449.06;4991459;28;20037;-94
2023/03/13 10:59:20;;;;;;;3.33;1.60;;;;;;;15.94;86.24;99442.25;4972367;28;20042;-93
2023/03/13 11:01:47;;;;;;;3.23;1.67;;;;;;;15.91;86.51;99451.00;4976629;28;20043;-92
2023/03/13 11:04:38;;;;;;;3.17;1.90;;;;;;;15.96;88.09;99445.50;4957940;28;20121;-92
2023/03/13 11:07:18;;;;;;;4.50;1.80;;;;;;;15.73;88.56;99440.69;4970726;28;20502;-92
2023/03/13 11:09:57;;;;;;;4.37;1.87;;;;;;;15.55;90.36;99423.81;4980027;28;20033;-91
2023/03/13 11:12:23;;;;;;;4.23;2.27;;;;;;;15.54;88.38;99441.28;4987685;28;20557;-92
2023/03/13 11:14:56;;;;;;;3.70;1.83;;;;;;;15.51;90.62;99452.78;4959925;28;20034;-91
2023/03/13 11:17:38;;;;;;;3.03;2.10;;;;;;;15.57;91.01;99448.13;4991562;28;20034;-91
2023/03/13 11:20:13;;;;;;;3.70;1.83;;;;;;;15.62;86.71;99413.41;4979918;28;20068;-92
2023/03/13 11:22:47;;;;;;;;;;;;;;;15.85;86.23;99411.97;4990579;28;20131;-92
2023/03/13 11:25:29;;;;;;;4.90;1.88;;;;;;;15.86;84.53;99407.31;4979791;28;19914;-91
2023/03/13 11:27:57;;;;;;;2.93;1.73;;;;;;;15.79;86.26;99417.69;4989206;28;20053;-83